createdAt,value
2019-01-21T00:01:06.377Z,50.60
2019-01-21T00:03:46.097Z,50.10
2019-01-21T00:06:24.449Z,46.70
2019-01-21T00:09:02.457Z,51.50
2019-01-21T00:11:40.218Z,50.30
2019-01-21T00:14:18.686Z,51.20
2019-01-21T00:16:57.727Z,52.10
2019-01-21T00:19:37.582Z,46.70
2019-01-21T00:22:17.816Z,45.20
2019-01-21T00:28:38.069Z,44.30
2019-01-21T00:31:23.026Z,43.60
2019-01-21T00:34:04.559Z,48.30
2019-01-21T00:36:42.058Z,46.20
2019-01-21T00:39:30.204Z,46.40
2019-01-21T00:42:08.409Z,44.80
2019-01-21T00:44:46.692Z,43.70
2019-01-21T00:47:38.558Z,43.70
2019-01-21T00:50:18.031Z,45.50
2019-01-21T00:53:03.042Z,45.30
2019-01-21T00:55:43.978Z,43.90
2019-01-21T00:58:47.103Z,45.30
2019-01-21T01:01:27.389Z,44.80
2019-01-21T01:04:06.166Z,44.20
2019-01-21T01:06:47.112Z,49.40
2019-01-21T01:09:25.688Z,52.10
2019-01-21T01:12:02.754Z,46.30
2019-01-21T01:14:40.819Z,46.70
2019-01-21T01:17:19.172Z,51.40
2019-01-21T01:19:57.060Z,47.90
2019-01-21T01:22:36.997Z,45.00
2019-01-21T01:25:16.175Z,45.50
2019-01-21T01:27:57.875Z,48.20
2019-01-21T01:30:39.132Z,45.20
2019-01-21T01:33:20.528Z,44.40
2019-01-21T01:36:01.858Z,46.50
2019-01-21T01:38:39.193Z,43.20
2019-01-21T01:41:16.677Z,46.00
2019-01-21T01:43:55.366Z,46.50
2019-01-21T01:46:33.128Z,43.90
2019-01-21T01:49:16.246Z,44.50
2019-01-21T01:51:55.747Z,41.90
2019-01-21T01:54:34.751Z,45.20
2019-01-21T01:57:15.026Z,43.90
2019-01-21T01:59:53.899Z,44.10
2019-01-21T02:02:32.539Z,42.30
2019-01-21T02:05:10.291Z,45.10
2019-01-21T02:07:52.947Z,46.70
2019-01-21T02:10:31.990Z,48.30
2019-01-21T02:13:10.183Z,44.50
2019-01-21T02:15:48.789Z,42.80
2019-01-21T02:18:33.285Z,43.30
2019-01-21T02:21:18.857Z,44.30
2019-01-21T02:24:05.880Z,44.50
2019-01-21T02:27:10.627Z,44.50
2019-01-21T02:30:34.894Z,46.30
2019-01-21T02:33:56.008Z,43.70
2019-01-21T02:37:01.001Z,41.60
2019-01-21T02:40:15.408Z,39.80
2019-01-21T02:43:19.580Z,40.00
2019-01-21T02:46:23.479Z,39.90
2019-01-21T02:49:17.152Z,42.10
2019-01-21T02:52:27.602Z,40.80
2019-01-21T02:55:34.576Z,39.80
2019-01-21T02:58:29.624Z,40.50
2019-01-21T03:01:39.603Z,38.70
2019-01-21T03:04:52.058Z,37.90
2019-01-21T03:07:48.308Z,37.80
2019-01-21T03:10:42.466Z,37.80
2019-01-21T03:13:57.567Z,37.90
2019-01-21T03:17:17.152Z,39.70
2019-01-21T03:20:10.949Z,37.90
2019-01-21T03:23:43.405Z,38.40
2019-01-21T03:26:41.675Z,38.30
2019-01-21T03:29:50.340Z,38.10
2019-01-21T03:32:56.098Z,37.10
2019-01-21T03:36:21.489Z,38.00
2019-01-21T03:39:35.784Z,38.10
2019-01-21T03:42:19.947Z,37.20
2019-01-21T03:46:04.388Z,37.40
2019-01-21T03:48:52.260Z,37.40
2019-01-21T03:52:03.495Z,39.40
2019-01-21T03:55:00.621Z,37.30
2019-01-21T03:58:31.642Z,37.80
2019-01-21T04:01:42.136Z,39.50
2019-01-21T04:04:51.788Z,37.20
2019-01-21T04:07:51.496Z,37.70
2019-01-21T04:11:14.912Z,39.90
2019-01-21T04:14:26.828Z,37.10
2019-01-21T04:17:55.580Z,36.70
2019-01-21T04:20:56.871Z,38.20
2019-01-21T04:23:55.827Z,41.90
2019-01-21T04:26:55.541Z,42.40
2019-01-21T04:30:03.701Z,40.80
2019-01-21T04:33:17.878Z,39.60
2019-01-21T04:36:12.788Z,37.60
2019-01-21T04:39:33.195Z,38.50
2019-01-21T04:42:44.897Z,38.70
2019-01-21T04:45:47.979Z,39.80
2019-01-21T04:49:00.944Z,37.50
2019-01-21T04:52:03.957Z,36.00
2019-01-21T04:55:25.460Z,35.70
2019-01-21T04:58:36.154Z,35.10
2019-01-21T05:01:53.952Z,34.70
2019-01-21T05:05:10.559Z,39.50
2019-01-21T05:08:16.730Z,37.60
2019-01-21T05:11:37.206Z,35.60
2019-01-21T05:14:33.927Z,37.50
2019-01-21T05:18:01.821Z,36.80
2019-01-21T05:21:30.489Z,39.40
2019-01-21T05:24:46.629Z,35.50
2019-01-21T05:27:46.903Z,35.00
2019-01-21T05:30:59.552Z,34.80
2019-01-21T05:34:18.855Z,35.40
2019-01-21T05:37:24.477Z,35.60
2019-01-21T05:40:38.624Z,37.70
2019-01-21T05:44:15.428Z,36.10
2019-01-21T05:47:25.268Z,34.70
2019-01-21T05:50:44.608Z,34.50
2019-01-21T05:53:56.459Z,37.40
2019-01-21T05:57:14.347Z,36.00
2019-01-21T06:00:30.627Z,38.50
2019-01-21T06:03:52.381Z,37.90
2019-01-21T06:06:44.635Z,36.70
2019-01-21T06:09:51.310Z,35.40
2019-01-21T06:13:09.832Z,34.40
2019-01-21T06:16:23.515Z,34.30
2019-01-21T06:19:28.549Z,35.10
2019-01-21T06:22:32.481Z,35.40
2019-01-21T06:26:09.524Z,34.50
2019-01-21T06:29:36.955Z,34.20
2019-01-21T06:32:48.233Z,34.20
2019-01-21T06:35:38.261Z,34.30
2019-01-21T06:38:53.414Z,34.60
2019-01-21T06:42:00.160Z,34.50
2019-01-21T06:45:20.315Z,34.10
2019-01-21T06:48:49.835Z,34.80
2019-01-21T06:51:55.371Z,36.20
2019-01-21T06:55:05.591Z,34.80
2019-01-21T06:58:24.795Z,36.00
2019-01-21T07:01:35.623Z,36.90
2019-01-21T07:04:47.139Z,35.40
2019-01-21T07:08:22.301Z,37.30
2019-01-21T07:11:34.281Z,35.50
2019-01-21T07:14:41.756Z,38.60
2019-01-21T07:17:35.468Z,39.20
2019-01-21T07:20:34.708Z,39.90
2019-01-21T07:23:48.952Z,37.40
2019-01-21T07:26:47.953Z,37.50
2019-01-21T07:29:58.297Z,37.80
2019-01-21T07:33:03.486Z,39.20
2019-01-21T07:36:23.085Z,37.80
2019-01-21T07:39:37.492Z,37.50
2019-01-21T07:42:53.425Z,37.00
2019-01-21T07:45:59.826Z,36.40
2019-01-21T07:49:07.713Z,37.00
2019-01-21T07:52:13.740Z,39.90
2019-01-21T07:55:20.664Z,37.70
2019-01-21T07:58:59.287Z,37.00
2019-01-21T08:02:16.256Z,37.60
2019-01-21T08:05:31.290Z,35.90
2019-01-21T08:09:01.393Z,36.60
2019-01-21T08:12:17.598Z,37.80
2019-01-21T08:15:26.267Z,36.70
2019-01-21T08:18:57.945Z,37.20
2019-01-21T08:22:12.253Z,39.00
2019-01-21T08:25:51.936Z,36.40
2019-01-21T08:28:42.500Z,37.60
2019-01-21T08:32:02.738Z,38.40
2019-01-21T08:35:27.756Z,39.00
2019-01-21T08:38:40.364Z,38.50
2019-01-21T08:41:47.817Z,37.80
2019-01-21T08:45:04.073Z,37.00
2019-01-21T08:48:23.323Z,36.20
2019-01-21T08:51:24.315Z,37.70
2019-01-21T08:54:20.032Z,39.80
2019-01-21T08:57:42.184Z,38.10
2019-01-21T09:00:52.554Z,39.10
2019-01-21T09:03:55.129Z,36.00
2019-01-21T09:06:45.260Z,38.00
2019-01-21T09:09:50.618Z,38.40
2019-01-21T09:13:03.552Z,36.10
2019-01-21T09:16:24.617Z,37.00
2019-01-21T09:19:24.094Z,37.70
2019-01-21T09:22:18.008Z,38.70
2019-01-21T09:25:41.636Z,37.10
2019-01-21T09:29:04.209Z,38.00
2019-01-21T09:32:17.315Z,37.20
2019-01-21T09:35:42.549Z,38.10
2019-01-21T09:38:57.961Z,38.60
2019-01-21T09:42:09.296Z,39.20
2019-01-21T09:45:27.598Z,37.00
2019-01-21T09:48:01.917Z,37.30
2019-01-21T09:50:43.989Z,37.80
2019-01-21T09:53:26.685Z,39.30
2019-01-21T09:56:07.001Z,38.80
2019-01-21T09:58:48.257Z,40.00
2019-01-21T10:01:27.623Z,40.00
2019-01-21T10:04:08.227Z,38.10
2019-01-21T10:06:55.683Z,40.20
2019-01-21T10:09:44.259Z,41.50
2019-01-21T10:13:08.104Z,41.60
2019-01-21T10:16:30.719Z,41.40
2019-01-21T10:20:13.399Z,40.80
2019-01-21T10:23:32.841Z,41.30
2019-01-21T10:26:46.927Z,41.50
2019-01-21T10:29:59.579Z,39.90
2019-01-21T10:33:08.782Z,41.70
2019-01-21T10:36:27.789Z,40.80
2019-01-21T10:47:08.211Z,42.70
2019-01-21T10:50:45.437Z,41.40
2019-01-21T10:54:26.236Z,45.20
2019-01-21T10:57:50.851Z,44.60
2019-01-21T11:01:25.338Z,46.50
2019-01-21T11:04:38.897Z,45.80
2019-01-21T11:08:24.969Z,47.80
2019-01-21T11:11:58.668Z,48.50
2019-01-21T11:15:14.538Z,49.10
2019-01-21T11:18:15.207Z,49.40
2019-01-21T11:21:28.308Z,49.00
2019-01-21T11:24:47.803Z,49.20
2019-01-21T11:28:01.324Z,49.70
2019-01-21T11:31:41.215Z,49.00
2019-01-21T11:35:15.566Z,49.20
2019-01-21T11:38:35.825Z,53.60
2019-01-21T11:42:15.399Z,51.50
2019-01-21T11:45:14.189Z,53.40
2019-01-21T11:48:27.512Z,53.00
2019-01-21T11:51:47.606Z,52.50
2019-01-21T11:55:14.657Z,50.80
2019-01-21T11:58:41.969Z,51.70
2019-01-21T12:02:03.360Z,52.60
2019-01-21T12:05:13.685Z,51.40
2019-01-21T12:08:21.143Z,53.20
2019-01-21T12:11:23.407Z,52.20
2019-01-21T12:14:42.002Z,53.00
2019-01-21T12:18:03.230Z,51.60
2019-01-21T12:21:28.586Z,53.10
2019-01-21T12:24:50.277Z,52.50
2019-01-21T12:29:22.287Z,55.00
2019-01-21T12:31:21.522Z,53.80
2019-01-21T12:34:48.745Z,54.40
2019-01-21T12:37:58.297Z,52.00
2019-01-21T12:41:28.034Z,52.80
2019-01-21T12:44:59.744Z,53.50
2019-01-21T12:48:21.840Z,54.30
2019-01-21T12:51:36.372Z,53.70
2019-01-21T12:54:48.463Z,53.30
2019-01-21T12:58:21.231Z,54.20
2019-01-21T13:01:26.338Z,54.50
2019-01-21T13:04:25.011Z,54.30
2019-01-21T13:07:55.201Z,55.10
2019-01-21T13:11:19.895Z,55.40
2019-01-21T13:14:37.730Z,55.90
2019-01-21T13:17:49.143Z,54.80
2019-01-21T13:21:08.783Z,54.10
2019-01-21T13:24:15.424Z,54.60
2019-01-21T13:27:29.915Z,54.10
2019-01-21T13:30:37.874Z,53.80
2019-01-21T13:33:55.520Z,53.00
2019-01-21T13:37:17.208Z,53.60
2019-01-21T13:40:34.901Z,53.30
2019-01-21T13:43:33.806Z,53.50
2019-01-21T13:46:52.480Z,52.80
2019-01-21T13:50:07.656Z,53.70
2019-01-21T13:53:24.287Z,53.30
2019-01-21T13:57:03.516Z,53.30
2019-01-21T14:04:11.681Z,52.20
2019-01-21T14:07:35.019Z,52.40
2019-01-21T14:11:01.252Z,52.20
2019-01-21T14:14:04.867Z,51.90
2019-01-21T14:18:33.434Z,53.30
2019-01-21T14:21:35.424Z,52.30
2019-01-21T14:24:27.150Z,51.50
2019-01-21T14:27:52.818Z,51.60
2019-01-21T14:31:11.724Z,52.20
2019-01-21T14:34:04.930Z,52.30
2019-01-21T14:37:16.165Z,52.30
2019-01-21T14:40:20.530Z,51.80
2019-01-21T14:43:24.562Z,51.90
2019-01-21T14:47:01.652Z,51.70
2019-01-21T14:50:38.184Z,52.20
2019-01-21T14:57:07.862Z,53.10
2019-01-21T15:00:09.468Z,52.30
2019-01-21T15:03:38.500Z,52.30
2019-01-21T15:06:50.916Z,52.70
2019-01-21T15:10:17.859Z,52.80
2019-01-21T15:13:43.219Z,52.50
2019-01-21T15:17:23.665Z,52.20
2019-01-21T15:23:54.097Z,52.80
2019-01-21T15:30:37.450Z,52.50
2019-01-21T15:33:47.332Z,52.40
2019-01-21T15:37:18.902Z,52.40
2019-01-21T15:41:02.203Z,52.30
2019-01-21T15:43:54.893Z,52.40
2019-01-21T15:50:44.616Z,52.60
2019-01-21T15:53:52.638Z,52.70
2019-01-21T15:56:45.464Z,52.70
2019-01-21T16:00:00.275Z,53.10
2019-01-21T16:02:56.774Z,53.20
2019-01-21T16:06:30.433Z,53.20
2019-01-21T16:09:42.167Z,53.60
2019-01-21T16:17:06.945Z,53.50
2019-01-21T16:20:27.451Z,53.90
2019-01-21T16:24:24.003Z,54.00
2019-01-21T16:27:12.958Z,54.30
2019-01-21T16:30:40.928Z,54.40
2019-01-21T16:33:51.840Z,54.10
2019-01-21T16:37:09.462Z,54.50
2019-01-21T16:40:25.270Z,54.70
2019-01-21T16:43:02.151Z,54.60
2019-01-21T16:45:41.855Z,54.70
2019-01-21T16:48:25.101Z,54.80
2019-01-21T16:51:04.048Z,54.80
2019-01-21T16:53:47.425Z,54.90
2019-01-21T16:56:25.678Z,55.10
2019-01-21T16:59:06.764Z,55.30
2019-01-21T17:01:56.165Z,55.10
2019-01-21T17:04:34.440Z,55.10
2019-01-21T17:07:13.358Z,55.20
2019-01-21T17:09:52.921Z,55.20
2019-01-21T17:12:31.805Z,55.30
2019-01-21T17:15:13.885Z,55.40
2019-01-21T17:17:52.595Z,55.50
2019-01-21T17:20:31.801Z,55.60
2019-01-21T17:23:09.753Z,55.70
2019-01-21T17:25:51.137Z,55.80
2019-01-21T17:28:35.066Z,55.70
2019-01-21T17:31:13.008Z,55.80
2019-01-21T17:33:55.739Z,55.60
2019-01-21T17:36:35.656Z,55.80
2019-01-21T17:39:15.653Z,55.80
2019-01-21T17:41:55.005Z,55.80
2019-01-21T17:44:35.157Z,56.00
2019-01-21T17:47:16.268Z,56.00
2019-01-21T17:49:57.346Z,56.10
2019-01-21T17:52:36.306Z,56.20
2019-01-21T17:55:15.259Z,56.10
2019-01-21T17:57:57.310Z,56.00
2019-01-21T18:00:36.633Z,56.00
2019-01-21T18:03:17.119Z,56.10
2019-01-21T18:05:54.394Z,56.10
2019-01-21T18:08:32.342Z,56.10
2019-01-21T18:11:12.921Z,56.00
2019-01-21T18:13:56.421Z,56.00
2019-01-21T18:16:45.154Z,56.10
2019-01-21T18:19:23.000Z,56.00
2019-01-21T18:22:03.874Z,56.20
2019-01-21T18:24:42.049Z,56.30
2019-01-21T18:27:21.547Z,56.30
2019-01-21T18:29:59.620Z,56.30
2019-01-21T18:32:37.784Z,56.20
2019-01-21T18:35:18.171Z,56.20
2019-01-21T18:37:56.123Z,56.30
2019-01-21T18:40:47.020Z,56.30
2019-01-21T18:43:25.722Z,56.30
2019-01-21T18:46:05.581Z,56.30
2019-01-21T18:48:45.603Z,56.30
2019-01-21T18:51:22.955Z,56.50
2019-01-21T18:54:01.272Z,56.30
2019-01-21T18:56:39.747Z,56.40
2019-01-21T18:59:19.978Z,56.60
2019-01-21T19:01:57.511Z,56.60
2019-01-21T19:04:35.238Z,57.40
2019-01-21T19:07:12.888Z,56.80
2019-01-21T19:09:52.521Z,56.80
2019-01-21T19:12:32.036Z,56.70
2019-01-21T19:15:13.375Z,56.70
2019-01-21T19:17:52.551Z,56.80
2019-01-21T19:20:31.366Z,56.80
2019-01-21T19:23:12.557Z,57.00
2019-01-21T19:25:51.450Z,56.80
2019-01-21T19:28:31.690Z,56.90
2019-01-21T19:31:10.848Z,56.80
2019-01-21T19:33:49.949Z,57.00
2019-01-21T19:36:29.364Z,57.00
2019-01-21T19:39:07.692Z,56.90
2019-01-21T19:41:46.085Z,56.90
2019-01-21T19:44:26.441Z,57.00
2019-01-21T19:47:05.944Z,57.10
2019-01-21T19:49:43.797Z,57.00
2019-01-21T19:52:24.078Z,56.80
2019-01-21T19:55:04.909Z,56.80
2019-01-21T19:57:42.217Z,57.00
2019-01-21T20:00:21.894Z,56.80
2019-01-21T20:03:03.472Z,56.70
2019-01-21T20:05:41.675Z,56.80
2019-01-21T20:08:20.794Z,57.00
2019-01-21T20:10:58.858Z,56.90
2019-01-21T20:13:37.468Z,57.00
2019-01-21T20:16:15.374Z,56.90
2019-01-21T20:18:53.226Z,56.80
2019-01-21T20:21:31.742Z,56.80
2019-01-21T20:24:13.886Z,57.00
2019-01-21T20:26:52.306Z,56.90
2019-01-21T20:29:31.008Z,57.10
2019-01-21T20:32:08.342Z,57.00
2019-01-21T20:34:47.276Z,57.00
2019-01-21T20:37:25.948Z,57.10
2019-01-21T20:40:04.122Z,57.10
2019-01-21T20:42:45.679Z,57.00
2019-01-21T20:45:23.666Z,57.10
2019-01-21T20:48:02.916Z,57.10
2019-01-21T20:50:40.760Z,57.10
2019-01-21T20:53:20.199Z,57.00
2019-01-21T20:55:59.676Z,56.90
2019-01-21T20:58:37.187Z,57.20
2019-01-21T21:01:16.212Z,57.10
2019-01-21T21:03:55.550Z,57.20
2019-01-21T21:06:33.367Z,57.20
2019-01-21T21:09:13.616Z,57.10
2019-01-21T21:11:53.659Z,57.00
2019-01-21T21:14:32.093Z,56.90
2019-01-21T21:17:09.760Z,57.40
2019-01-21T21:19:47.390Z,57.30
2019-01-21T21:22:24.807Z,57.40
2019-01-21T21:25:03.068Z,57.20
2019-01-21T21:27:42.169Z,57.20
2019-01-21T21:30:23.840Z,57.50
2019-01-21T21:33:02.738Z,57.10
2019-01-21T21:35:40.084Z,57.30
2019-01-21T21:38:17.295Z,57.30
2019-01-21T21:40:54.647Z,57.40
2019-01-21T21:43:32.472Z,57.40
2019-01-21T21:46:13.395Z,57.30
2019-01-21T21:48:52.709Z,57.40
2019-01-21T21:51:32.030Z,57.40
2019-01-21T21:54:10.173Z,57.20
2019-01-21T21:56:49.346Z,57.20
2019-01-21T21:59:27.015Z,57.40
2019-01-21T22:02:06.858Z,57.50
2019-01-21T22:04:45.348Z,57.50
2019-01-21T22:07:25.663Z,57.20
2019-01-21T22:10:03.286Z,57.20
2019-01-21T22:12:41.699Z,57.30
2019-01-21T22:15:20.926Z,57.60
2019-01-21T22:17:58.585Z,57.70
2019-01-21T22:20:37.994Z,57.50
2019-01-21T22:23:15.959Z,57.50
2019-01-21T22:25:53.245Z,57.40
2019-01-21T22:28:31.539Z,57.50
2019-01-21T22:31:12.482Z,57.60
2019-01-21T22:33:50.736Z,57.70
2019-01-21T22:36:27.785Z,57.80
2019-01-21T22:39:10.566Z,57.70
2019-01-21T22:41:50.126Z,57.70
2019-01-21T22:44:28.983Z,57.70
2019-01-21T22:47:09.324Z,57.90
2019-01-21T22:49:48.566Z,57.80
2019-01-21T22:52:29.284Z,57.80
2019-01-21T22:55:06.739Z,57.60
2019-01-21T22:57:43.464Z,58.00
2019-01-21T23:01:05.357Z,58.00
2019-01-21T23:03:42.669Z,58.40
2019-01-21T23:06:21.789Z,58.60
2019-01-21T23:09:01.948Z,59.10
2019-01-21T23:11:46.008Z,59.10
2019-01-21T23:14:25.762Z,59.40
2019-01-21T23:17:03.972Z,59.10
2019-01-21T23:19:41.459Z,59.10
2019-01-21T23:22:20.521Z,59.00
2019-01-21T23:24:58.377Z,59.60
2019-01-21T23:27:37.908Z,59.70
2019-01-21T23:30:23.181Z,59.60
2019-01-21T23:33:01.381Z,59.60
2019-01-21T23:35:41.655Z,60.50
2019-01-21T23:38:22.080Z,61.20
2019-01-21T23:41:00.264Z,60.60
2019-01-21T23:43:38.107Z,61.90
2019-01-21T23:46:19.712Z,63.10
2019-01-21T23:48:58.786Z,62.30
2019-01-21T23:51:36.546Z,62.30
2019-01-21T23:54:15.271Z,61.40
2019-01-21T23:56:54.020Z,60.80
2019-01-21T23:59:33.399Z,60.90
